Time;durP1;ratioP1;P1;durP2;ratioP2;P2;SDS_P1;SDS_P2;PMS_P1;PMS_P2;Temp;Humidity;BMP_temperature;BMP_pressure;BME280_temperature;BME280_humidity;BME280_pressure;Samples;Min_cycle;Max_cycle;Signal;HPM_P1;HPM_P2
2023/07/07 00:00:37;;;;;;;10.00;5.00;;;;;;;15.72;97.33;96837.06;4944659;28;20559;-66
2023/07/07 00:03:02;;;;;;;11.73;5.20;;;;;;;15.58;98.16;96841.44;4961421;28;20038;-66
2023/07/07 00:05:28;;;;;;;11.93;5.95;;;;;;;15.46;99.12;96836.31;4958994;28;20167;-64
2023/07/07 00:07:54;;;;;;;11.02;5.50;;;;;;;15.39;100.00;96830.81;4962355;28;20129;-65
2023/07/07 00:10:20;;;;;;;9.45;5.47;;;;;;;15.30;100.00;96831.19;4957561;28;20047;-63
2023/07/07 00:12:46;;;;;;;12.70;6.00;;;;;;;15.17;100.00;96836.31;4962276;28;20058;-65
2023/07/07 00:15:12;;;;;;;9.68;4.93;;;;;;;15.29;100.00;96835.94;4959849;28;20114;-64
2023/07/07 00:17:41;;;;;;;12.77;5.47;;;;;;;15.26;100.00;96845.00;4979401;28;20034;-65
2023/07/07 00:20:09;;;;;;;10.35;4.90;;;;;;;15.26;100.00;96841.47;4964778;28;20521;-63
2023/07/07 00:22:35;;;;;;;9.23;4.82;;;;;;;15.23;100.00;96843.03;4964748;28;20049;-63
2023/07/07 00:25:02;;;;;;;9.20;5.25;;;;;;;15.22;100.00;96841.47;4965803;28;20038;-65
2023/07/07 00:27:27;;;;;;;9.95;4.78;;;;;;;15.26;100.00;96836.72;4963755;28;20126;-63
2023/07/07 00:29:53;;;;;;;10.07;5.18;;;;;;;15.27;100.00;96841.06;4962935;28;20481;-63
2023/07/07 00:32:18;;;;;;;9.43;4.55;;;;;;;15.29;100.00;96838.69;4958011;28;20047;-65
2023/07/07 00:34:44;;;;;;;10.65;4.78;;;;;;;15.34;100.00;96839.47;4964949;28;20043;-67
2023/07/07 00:37:09;;;;;;;11.98;5.35;;;;;;;15.35;100.00;96841.06;4961582;28;20039;-67
2023/07/07 00:39:35;;;;;;;8.50;4.70;;;;;;;15.31;100.00;96845.81;4963873;28;20097;-67
2023/07/07 00:42:00;;;;;;;8.73;5.50;;;;;;;15.31;100.00;96845.81;4965976;28;20516;-68
2023/07/07 00:45:04;;;;;;;9.80;5.13;;;;;;;15.35;100.00;96836.34;4971584;28;20043;-68
2023/07/07 00:47:31;;;;;;;8.98;5.53;;;;;;;15.42;100.00;96849.34;4968487;28;20046;-69
2023/07/07 00:49:57;;;;;;;8.85;4.90;;;;;;;15.41;100.00;96854.09;4965635;28;20057;-66
2023/07/07 00:52:22;;;;;;;11.77;5.95;;;;;;;15.33;100.00;96848.97;4959206;28;20355;-65
2023/07/07 00:54:48;;;;;;;8.88;5.03;;;;;;;15.23;100.00;96845.81;4965283;28;20046;-64
2023/07/07 00:57:14;;;;;;;8.25;4.68;;;;;;;15.19;100.00;96853.28;4959343;28;20057;-67
2023/07/07 00:59:42;;;;;;;9.90;5.18;;;;;;;15.15;100.00;96852.50;4962719;28;20138;-66
2023/07/07 01:02:15;;;;;;;8.77;5.05;;;;;;;15.13;100.00;96849.34;4942342;28;20659;-65
2023/07/07 01:04:48;;;;;;;11.35;5.10;;;;;;;15.08;100.00;96850.50;4964992;28;20051;-65
2023/07/07 01:07:21;;;;;;;8.23;5.05;;;;;;;15.10;100.00;96850.91;4960633;28;20046;-63
2023/07/07 01:09:46;;;;;;;10.70;4.78;;;;;;;15.13;100.00;96851.31;4964666;28;20510;-65
2023/07/07 01:12:13;;;;;;;9.07;4.60;;;;;;;15.17;100.00;96846.59;4960509;28;20043;-64
2023/07/07 01:14:39;;;;;;;9.13;5.00;;;;;;;15.15;100.00;96849.72;4964892;28;20063;-66
2023/07/07 01:17:37;;;;;;;9.57;5.30;;;;;;;15.16;100.00;96856.03;4963811;28;20066;-70
2023/07/07 01:20:31;;;;;;;10.27;4.65;;;;;;;15.22;100.00;96855.25;4974516;28;20042;-71
2023/07/07 01:23:12;;;;;;;9.80;4.45;;;;;;;15.17;100.00;96852.88;4965330;28;20073;-65
2023/07/07 01:25:55;;;;;;;8.07;4.75;;;;;;;15.23;100.00;96864.31;4973697;28;20038;-68
2023/07/07 01:28:31;;;;;;;8.32;4.05;;;;;;;15.15;100.00;96858.00;4978295;28;20030;-67
2023/07/07 01:31:17;;;;;;;9.02;4.82;;;;;;;15.09;100.00;96854.84;4979157;28;20062;-67
2023/07/07 01:33:45;;;;;;;9.02;4.57;;;;;;;15.09;100.00;96854.84;4964272;28;20300;-68
2023/07/07 01:36:10;;;;;;;8.70;5.22;;;;;;;15.02;100.00;96862.34;4977435;28;20038;-67
2023/07/07 01:38:42;;;;;;;9.27;5.53;;;;;;;14.96;100.00;96864.66;4981687;28;20122;-67
2023/07/07 01:41:30;;;;;;;9.43;4.63;;;;;;;14.84;100.00;96854.81;4977244;28;20044;-67
2023/07/07 01:44:26;;;;;;;9.90;5.05;;;;;;;14.81;100.00;96861.09;4965317;28;20039;-66
2023/07/07 01:47:13;;;;;;;12.02;4.72;;;;;;;14.77;100.00;96857.56;4983118;28;20039;-68
2023/07/07 01:49:57;;;;;;;9.07;4.82;;;;;;;14.73;100.00;96862.28;4981768;28;20050;-67
2023/07/07 01:52:30;;;;;;;8.60;4.75;;;;;;;14.63;100.00;96857.53;4959001;28;20298;-67
2023/07/07 01:55:17;;;;;;;10.40;4.20;;;;;;;14.57;100.00;96856.28;4965062;28;20047;-68
2023/07/07 01:57:46;;;;;;;10.85;4.35;;;;;;;14.53;100.00;96861.78;4963150;28;20066;-68
2023/07/07 02:00:14;;;;;;;8.18;4.28;;;;;;;14.50;100.00;96863.34;4958453;28;20043;-67
2023/07/07 02:02:39;;;;;;;8.48;4.90;;;;;;;14.52;100.00;96866.50;4962487;28;20046;-66
2023/07/07 02:05:05;;;;;;;9.30;4.05;;;;;;;14.61;100.00;96862.63;4960039;28;20050;-67
2023/07/07 02:07:31;;;;;;;10.82;4.60;;;;;;;14.66;100.00;96865.81;4963369;28;20046;-65
2023/07/07 02:09:57;;;;;;;12.40;4.60;;;;;;;14.70;100.00;96874.88;4963668;28;20047;-67
2023/07/07 02:12:22;;;;;;;11.50;4.85;;;;;;;14.61;100.00;96859.88;4958647;28;21150;-67
2023/07/07 02:14:47;;;;;;;10.93;5.95;;;;;;;14.59;100.00;96857.50;4963891;28;20489;-64
2023/07/07 02:17:15;;;;;;;7.60;4.60;;;;;;;14.62;100.00;96862.25;4958617;28;20397;-67
2023/07/07 02:19:41;;;;;;;9.52;4.35;;;;;;;14.65;100.00;96863.44;4963884;28;20496;-69
2023/07/07 02:22:07;;;;;;;9.68;4.13;;;;;;;14.74;100.00;96865.81;4957844;28;20049;-69
2023/07/07 02:24:33;;;;;;;10.95;4.82;;;;;;;14.76;100.00;96866.22;4962942;28;20133;-69
2023/07/07 02:26:58;;;;;;;10.23;4.60;;;;;;;14.77;100.00;96865.06;4963842;28;20399;-66
2023/07/07 02:29:24;;;;;;;9.40;4.70;;;;;;;14.74;100.00;96863.06;4959395;28;20209;-66
2023/07/07 02:31:49;;;;;;;8.68;4.55;;;;;;;14.77;100.00;96856.78;4958607;28;20387;-67
2023/07/07 02:34:14;;;;;;;7.10;3.72;;;;;;;14.80;100.00;96859.53;4959476;28;20050;-66
2023/07/07 02:36:40;;;;;;;7.38;4.10;;;;;;;14.77;100.00;96862.28;4963005;28;20054;-66
2023/07/07 02:39:05;;;;;;;7.55;4.03;;;;;;;14.78;100.00;96863.84;4957270;28;20042;-66
2023/07/07 02:41:30;;;;;;;10.75;4.05;;;;;;;14.78;100.00;96866.59;4963429;28;20047;-65
2023/07/07 02:43:56;;;;;;;8.55;4.38;;;;;;;14.83;100.00;96860.72;4962623;28;20077;-67
2023/07/07 02:46:21;;;;;;;9.27;4.38;;;;;;;14.81;100.00;96869.38;4958107;28;20119;-68
2023/07/07 02:48:47;;;;;;;10.27;4.90;;;;;;;14.82;100.00;96867.41;4961310;28;20154;-67
2023/07/07 02:51:12;;;;;;;8.75;4.38;;;;;;;14.90;100.00;96874.53;4957552;28;20043;-67
2023/07/07 02:53:37;;;;;;;8.73;4.07;;;;;;;15.01;100.00;96872.56;4962553;28;20047;-67
2023/07/07 02:56:04;;;;;;;8.82;4.10;;;;;;;15.03;100.00;96872.97;4960323;28;20050;-70
2023/07/07 02:58:30;;;;;;;8.77;4.43;;;;;;;14.96;100.00;96872.16;4963793;28;20496;-66
2023/07/07 03:01:09;;;;;;;6.55;3.58;;;;;;;14.93;100.00;96870.19;4962679;28;20050;-67
2023/07/07 03:03:35;;;;;;;7.00;4.20;;;;;;;14.83;100.00;96878.03;4960754;28;20564;-66
2023/07/07 03:06:07;;;;;;;8.25;3.88;;;;;;;14.81;100.00;96865.84;4962544;28;20134;-67
2023/07/07 03:08:32;;;;;;;8.70;4.10;;;;;;;14.75;100.00;96868.19;4962300;28;20709;-67
2023/07/07 03:10:57;;;;;;;9.27;3.92;;;;;;;14.75;100.00;96876.47;4962946;28;20114;-67
2023/07/07 03:13:23;;;;;;;11.65;4.47;;;;;;;14.68;100.00;96868.94;4957276;28;21083;-67
2023/07/07 03:15:48;;;;;;;13.48;4.05;;;;;;;14.67;100.00;96875.63;4962726;28;20046;-68
2023/07/07 03:18:14;;;;;;;9.20;4.30;;;;;;;14.65;100.00;96874.44;4958190;28;20051;-67
2023/07/07 03:20:47;;;;;;;9.57;4.35;;;;;;;14.64;100.00;96883.88;4962185;28;20045;-67
2023/07/07 03:23:13;;;;;;;7.05;4.13;;;;;;;14.64;100.00;96881.13;4955541;28;20354;-66
2023/07/07 03:25:38;;;;;;;7.13;3.95;;;;;;;14.65;100.00;96882.72;4961622;28;20038;-67
2023/07/07 03:28:03;;;;;;;7.15;3.92;;;;;;;14.74;100.00;96876.84;4942499;28;20138;-69
2023/07/07 03:30:29;;;;;;;7.57;3.72;;;;;;;14.75;100.00;96876.47;4961070;28;20058;-68
2023/07/07 03:32:55;;;;;;;7.25;3.60;;;;;;;14.75;100.00;96881.97;4961875;28;20109;-66
2023/07/07 03:35:20;;;;;;;8.88;4.50;;;;;;;14.79;100.00;96876.47;4961133;28;20045;-69
2023/07/07 03:37:46;;;;;;;7.85;3.78;;;;;;;14.73;100.00;96876.06;4973224;28;20058;-66
2023/07/07 03:40:12;;;;;;;8.32;4.20;;;;;;;14.57;100.00;96875.56;4958479;28;20632;-67
2023/07/07 03:42:37;;;;;;;6.18;3.78;;;;;;;14.51;100.00;96887.00;4962170;28;20066;-67
2023/07/07 03:45:03;;;;;;;11.15;4.22;;;;;;;14.48;100.00;96884.22;4958916;28;20046;-70
2023/07/07 03:47:29;;;;;;;6.95;4.07;;;;;;;14.44;100.00;96892.47;4962472;28;20110;-67
2023/07/07 03:49:54;;;;;;;6.85;3.85;;;;;;;14.43;100.00;96893.63;4961823;28;20051;-67
2023/07/07 03:52:19;;;;;;;7.60;4.22;;;;;;;14.47;100.00;96902.69;4961773;28;20538;-64
2023/07/07 03:54:45;;;;;;;10.77;4.10;;;;;;;14.53;100.00;96900.34;4966857;28;20050;-66
2023/07/07 03:57:13;;;;;;;8.93;4.38;;;;;;;14.57;100.00;96898.44;4962221;28;20070;-67
2023/07/07 03:59:39;;;;;;;7.07;3.97;;;;;;;14.69;100.00;96900.06;4969199;28;20047;-67
2023/07/07 04:02:05;;;;;;;9.35;4.05;;;;;;;14.69;100.00;96905.56;4965984;28;20043;-71
2023/07/07 04:04:31;;;;;;;9.18;4.20;;;;;;;14.75;100.00;96904.03;4951446;28;20050;-68
2023/07/07 04:06:57;;;;;;;11.88;4.20;;;;;;;14.76;100.00;96905.59;4972746;28;20495;-67
2023/07/07 04:09:23;;;;;;;9.45;3.92;;;;;;;14.77;100.00;96898.91;4971843;28;20785;-66
2023/07/07 04:11:49;;;;;;;11.77;4.22;;;;;;;14.78;100.00;96899.69;4975292;28;20058;-68
2023/07/07 04:14:15;;;;;;;11.65;4.20;;;;;;;14.82;100.00;96904.06;4951226;28;20558;-68
2023/07/07 04:16:41;;;;;;;8.45;4.60;;;;;;;14.90;100.00;96910.38;4967419;28;20042;-68
2023/07/07 04:19:07;;;;;;;9.73;4.40;;;;;;;15.00;100.00;96904.09;4971796;28;20399;-69
2023/07/07 04:21:34;;;;;;;7.53;4.63;;;;;;;15.14;100.00;96903.31;4979681;28;20078;-68
2023/07/07 04:24:00;;;;;;;9.15;3.78;;;;;;;15.24;100.00;96908.06;4986464;28;20062;-68
2023/07/07 04:26:28;;;;;;;11.10;4.63;;;;;;;15.29;100.00;96904.16;4980979;28;20097;-69
2023/07/07 04:28:56;;;;;;;10.15;4.43;;;;;;;15.31;100.00;96909.28;4984299;28;20046;-68
2023/07/07 04:31:25;;;;;;;8.52;4.25;;;;;;;15.34;100.00;96911.22;4977944;28;20031;-69
2023/07/07 04:33:51;;;;;;;;;;;;;;;15.38;100.00;96907.31;4971068;28;20070;-68
2023/07/07 04:36:17;;;;;;;9.80;3.90;;;;;;;15.50;99.69;96917.16;4969473;28;20372;-69
2023/07/07 04:38:44;;;;;;;9.20;4.18;;;;;;;15.76;99.56;96920.75;4983298;28;20143;-69
2023/07/07 04:41:17;;;;;;;10.35;4.53;;;;;;;15.74;97.75;96923.09;4970133;28;20046;-68
2023/07/07 04:43:45;;;;;;;8.57;4.32;;;;;;;15.76;97.63;96916.00;4966397;28;20657;-67
2023/07/07 04:46:14;;;;;;;12.43;4.40;;;;;;;15.82;97.51;96924.69;4960435;28;20042;-68
2023/07/07 04:48:40;;;;;;;6.97;4.05;;;;;;;16.02;96.37;96930.56;4965148;28;20093;-68
2023/07/07 04:51:08;;;;;;;7.45;3.75;;;;;;;16.04;96.17;96923.47;4959858;28;20488;-70
2023/07/07 04:53:35;;;;;;;8.75;4.03;;;;;;;16.27;94.80;96925.00;4964888;28;20554;-69
2023/07/07 04:56:02;;;;;;;6.85;4.22;;;;;;;16.85;90.41;96930.34;4965475;28;20381;-68
2023/07/07 04:58:28;;;;;;;8.70;4.20;;;;;;;17.82;83.73;96938.03;4962274;28;20042;-68
2023/07/07 05:01:29;;;;;;;9.07;3.45;;;;;;;18.67;78.18;96936.41;4947781;28;20567;-68
2023/07/07 05:04:00;;;;;;;8.43;4.03;;;;;;;19.51;73.38;96942.44;4964159;28;20101;-68
2023/07/07 05:06:29;;;;;;;6.40;3.42;;;;;;;18.87;73.69;96944.09;4960178;28;20448;-69
2023/07/07 05:08:55;;;;;;;8.23;3.97;;;;;;;19.67;70.93;96947.34;4965097;28;20401;-66
2023/07/07 05:11:24;;;;;;;8.63;3.95;;;;;;;19.77;69.26;96956.75;4961254;28;20042;-67
2023/07/07 05:13:51;;;;;;;9.53;3.97;;;;;;;20.28;67.21;96957.50;4964050;28;20047;-69
2023/07/07 05:16:19;;;;;;;10.05;4.07;;;;;;;19.49;70.41;96950.41;4959452;28;20313;-68
2023/07/07 05:18:44;;;;;;;7.55;3.88;;;;;;;19.95;70.36;96951.72;4964433;28;20865;-68
2023/07/07 05:21:12;;;;;;;9.27;4.00;;;;;;;20.96;62.97;96955.44;4959081;28;20074;-67
2023/07/07 05:23:38;;;;;;;8.05;3.63;;;;;;;20.83;63.69;96960.84;4963119;28;20047;-68
2023/07/07 05:26:05;;;;;;;7.35;3.55;;;;;;;20.42;65.36;96956.44;4942987;28;20043;-64
2023/07/07 05:28:30;;;;;;;8.77;3.53;;;;;;;19.83;68.18;96957.88;4964495;28;20190;-67
2023/07/07 05:30:56;;;;;;;9.20;4.32;;;;;;;19.48;69.11;96963.53;4960365;28;20126;-68
2023/07/07 05:33:22;;;;;;;9.35;4.18;;;;;;;20.15;68.28;96948.97;4959630;28;20392;-66
2023/07/07 05:35:47;;;;;;;7.40;4.00;;;;;;;20.07;66.38;96961.41;4964456;28;20049;-67
2023/07/07 05:38:12;;;;;;;8.90;3.47;;;;;;;19.70;68.87;96957.66;4959828;28;20050;-69
2023/07/07 05:40:42;;;;;;;7.03;3.75;;;;;;;19.69;68.61;96967.16;4964905;28;20388;-68
2023/07/07 05:43:07;;;;;;;;;;;;;;;20.04;68.76;96956.69;4965798;28;20045;-68
2023/07/07 05:45:33;;;;;;;8.65;3.80;;;;;;;21.02;67.06;96967.63;4963898;28;19914;-68
2023/07/07 05:47:58;;;;;;;12.07;4.00;;;;;;;20.62;65.70;96964.84;4963502;28;20046;-69
2023/07/07 05:50:25;;;;;;;8.45;3.70;;;;;;;20.00;67.48;96967.09;4959859;28;20042;-66
2023/07/07 05:52:51;;;;;;;6.53;3.38;;;;;;;20.31;66.76;96973.34;4963426;28;20074;-68
2023/07/07 05:55:30;;;;;;;7.78;3.30;;;;;;;20.96;63.23;96969.34;4960140;28;20049;-66
2023/07/07 05:57:56;;;;;;;8.80;4.05;;;;;;;21.10;63.48;96974.59;4964634;28;20046;-69
2023/07/07 06:00:22;;;;;;;6.57;3.50;;;;;;;22.44;58.61;96987.06;4958896;28;20615;-67
2023/07/07 06:02:48;;;;;;;10.52;3.67;;;;;;;22.23;59.04;96991.16;4963258;28;20118;-67
2023/07/07 06:05:14;;;;;;;6.93;3.70;;;;;;;24.03;52.67;96989.63;4958861;28;20157;-69
2023/07/07 06:07:39;;;;;;;8.60;4.00;;;;;;;24.56;49.86;97003.09;4964000;28;20444;-69
2023/07/07 06:10:05;;;;;;;6.90;3.40;;;;;;;24.29;50.31;97000.00;4957911;28;20137;-69
2023/07/07 06:12:34;;;;;;;7.35;3.67;;;;;;;23.35;52.86;96999.31;4962426;28;20121;-68
2023/07/07 06:15:00;;;;;;;10.48;3.90;;;;;;;23.37;53.44;96991.28;4963947;28;20129;-70
2023/07/07 06:17:25;;;;;;;7.00;3.22;;;;;;;23.47;53.41;96990.97;4958728;28;20153;-69
2023/07/07 06:19:50;;;;;;;7.07;3.50;;;;;;;24.17;50.79;96990.41;4964392;28;20098;-69
2023/07/07 06:22:16;;;;;;;8.35;3.50;;;;;;;23.98;50.58;96990.19;4961175;28;20081;-70
2023/07/07 06:24:41;;;;;;;5.07;3.08;;;;;;;24.22;51.42;96989.84;4963863;28;20050;-69
2023/07/07 06:27:06;;;;;;;6.78;3.30;;;;;;;22.86;53.45;96986.34;4958986;28;20060;-69
2023/07/07 06:29:35;;;;;;;10.77;3.92;;;;;;;22.28;55.97;96990.66;4963411;28;20066;-68
2023/07/07 06:32:00;;;;;;;12.82;3.40;;;;;;;24.04;50.05;96994.00;4959127;28;20038;-67
2023/07/07 06:34:26;;;;;;;7.88;3.05;;;;;;;24.27;49.39;96983.66;4958111;28;20105;-69
2023/07/07 06:36:52;;;;;;;6.63;3.38;;;;;;;22.33;53.28;96995.69;4963777;28;20047;-67
2023/07/07 06:39:17;;;;;;;8.45;3.13;;;;;;;22.17;53.73;96994.91;4957592;28;20122;-67
2023/07/07 06:41:42;;;;;;;11.30;3.67;;;;;;;21.29;57.57;96992.50;4963410;28;20050;-69
2023/07/07 06:44:08;;;;;;;7.60;3.33;;;;;;;22.87;54.81;96988.69;4958572;28;20034;-70
2023/07/07 06:46:33;;;;;;;13.40;3.60;;;;;;;24.69;49.96;96993.88;4963285;28;20085;-70
2023/07/07 06:48:59;;;;;;;8.35;3.30;;;;;;;22.60;53.08;96991.03;4962606;28;20047;-70
2023/07/07 06:51:25;;;;;;;11.25;3.60;;;;;;;22.91;52.07;96997.75;4957737;28;20545;-70
2023/07/07 06:53:50;;;;;;;9.30;3.15;;;;;;;23.65;50.18;97001.59;4962943;28;20038;-69
2023/07/07 06:56:15;;;;;;;5.88;3.00;;;;;;;23.84;50.33;97010.22;4955401;28;20439;-70
2023/07/07 06:58:41;;;;;;;10.40;3.90;;;;;;;22.89;53.57;97005.00;4963491;28;20130;-69
2023/07/07 07:01:09;;;;;;;7.85;3.20;;;;;;;25.05;47.33;97012.19;4939732;28;20050;-68
2023/07/07 07:03:36;;;;;;;10.90;3.20;;;;;;;23.96;48.54;97008.66;4945587;28;20046;-72
2023/07/07 07:06:01;;;;;;;8.88;3.03;;;;;;;23.48;50.39;97000.16;4963010;28;20038;-69
2023/07/07 07:08:26;;;;;;;9.55;3.10;;;;;;;22.99;51.91;97008.72;4960532;28;20109;-68
2023/07/07 07:10:52;;;;;;;5.28;2.35;;;;;;;24.67;47.96;97010.31;4962136;28;20550;-69
2023/07/07 07:13:17;;;;;;;7.20;3.00;;;;;;;26.13;43.24;97018.09;4957480;28;20038;-69
2023/07/07 07:15:43;;;;;;;10.15;3.40;;;;;;;26.70;42.47;97017.78;4960862;28;20042;-68
2023/07/07 07:18:11;;;;;;;11.98;2.58;;;;;;;26.98;42.22;97017.75;4958551;28;20035;-69
2023/07/07 07:20:36;;;;;;;5.63;2.75;;;;;;;25.35;44.65;97007.91;4962263;28;20046;-68
2023/07/07 07:23:02;;;;;;;9.10;3.25;;;;;;;25.36;44.84;97017.88;4943850;28;20101;-62
2023/07/07 07:25:28;;;;;;;7.50;2.78;;;;;;;24.34;48.08;97008.59;4944365;28;20049;-68
2023/07/07 07:27:54;;;;;;;8.68;3.47;;;;;;;24.94;45.96;97021.00;4966967;28;20126;-68
2023/07/07 07:30:19;;;;;;;7.90;3.20;;;;;;;25.51;43.39;97026.53;4960000;28;20381;-67
2023/07/07 07:32:45;;;;;;;4.78;2.83;;;;;;;27.46;41.10;97026.47;4964224;28;20038;-67
2023/07/07 07:35:11;;;;;;;7.65;2.75;;;;;;;26.29;42.14;97021.91;4944025;28;20089;-69
2023/07/07 07:37:37;;;;;;;7.45;3.30;;;;;;;24.89;43.45;97027.19;4966345;28;20047;-67
2023/07/07 07:40:03;;;;;;;7.68;3.25;;;;;;;26.67;40.79;97024.31;4964992;28;20049;-67
2023/07/07 07:42:29;;;;;;;8.40;4.25;;;;;;;25.60;42.83;97026.56;4962900;28;20035;-69
2023/07/07 07:44:54;;;;;;;11.02;3.45;;;;;;;25.88;42.75;97023.91;4966497;28;20057;-68
2023/07/07 07:47:20;;;;;;;11.15;2.80;;;;;;;27.44;38.79;97028.97;4960672;28;20043;-68
2023/07/07 07:49:46;;;;;;;6.57;3.00;;;;;;;27.92;37.59;97021.97;4966053;28;20141;-69
2023/07/07 07:52:12;;;;;;;5.93;3.08;;;;;;;28.39;37.35;97031.75;4961682;28;20592;-67
2023/07/07 07:54:38;;;;;;;8.15;3.28;;;;;;;27.46;38.67;97025.69;4950658;28;20071;-69
2023/07/07 07:57:04;;;;;;;8.82;3.10;;;;;;;26.25;40.72;97019.22;4966260;28;20038;-64
2023/07/07 07:59:31;;;;;;;5.43;2.90;;;;;;;27.18;40.16;97010.88;4965919;28;20097;-68
2023/07/07 08:01:57;;;;;;;6.63;3.05;;;;;;;24.43;44.08;97010.72;4966008;28;20466;-69
2023/07/07 08:04:23;;;;;;;8.85;3.20;;;;;;;26.02;41.91;97011.34;4961455;28;20054;-67
2023/07/07 08:06:52;;;;;;;7.38;2.90;;;;;;;27.88;38.28;97008.03;4972721;28;20097;-67
2023/07/07 08:09:18;;;;;;;;;;;;;;;25.85;40.77;97008.78;4964033;28;20063;-70
2023/07/07 08:11:43;;;;;;;5.43;3.13;;;;;;;27.00;38.86;97015.25;4967626;28;19918;-68
2023/07/07 08:14:18;;;;;;;7.33;3.10;;;;;;;26.55;39.04;97013.97;4963384;28;20054;-68
2023/07/07 08:16:45;;;;;;;8.75;3.40;;;;;;;26.59;39.76;97014.59;4949492;28;20286;-67
2023/07/07 08:19:11;;;;;;;10.32;3.33;;;;;;;25.37;41.56;97008.22;4958277;28;20035;-68
2023/07/07 08:21:36;;;;;;;7.65;3.50;;;;;;;26.09;41.43;97009.06;4966681;28;20070;-68
2023/07/07 08:24:02;;;;;;;10.60;3.80;;;;;;;25.93;42.17;97012.13;4967950;28;20126;-65
2023/07/07 08:26:28;;;;;;;6.70;3.30;;;;;;;26.42;40.76;97016.16;4966175;28;20038;-69
2023/07/07 08:28:53;;;;;;;10.80;3.60;;;;;;;25.29;41.30;97015.34;4965669;28;20101;-67
2023/07/07 08:31:18;;;;;;;8.48;3.03;;;;;;;26.22;39.95;97013.78;4960126;28;20058;-69
2023/07/07 08:33:46;;;;;;;6.65;3.30;;;;;;;24.49;42.29;97022.91;4964004;28;20568;-68
2023/07/07 08:36:11;;;;;;;7.40;3.17;;;;;;;25.75;40.70;97030.41;4959528;28;20043;-67
2023/07/07 08:38:37;;;;;;;9.00;3.25;;;;;;;25.38;41.76;97023.81;4964930;28;20097;-69
2023/07/07 08:41:02;;;;;;;8.25;3.60;;;;;;;25.63;40.63;97031.28;4962588;28;20043;-66
2023/07/07 08:43:29;;;;;;;7.10;3.53;;;;;;;25.64;41.52;97021.63;4962018;28;20038;-69
2023/07/07 08:45:55;;;;;;;9.07;3.35;;;;;;;26.15;45.37;97020.44;4965325;28;20070;-67
2023/07/07 08:48:36;;;;;;;11.27;3.93;;;;;;;27.27;44.18;97016.50;4959874;28;20134;-69
2023/07/07 08:51:07;;;;;;;10.43;4.72;;;;;;;28.21;43.07;97010.88;4944959;29;20287;-70
2023/07/07 08:53:35;;;;;;;6.40;3.25;;;;;;;28.02;42.63;97015.06;4945861;28;20054;-69
2023/07/07 08:56:19;;;;;;;8.65;2.83;;;;;;;28.06;42.67;97012.06;4946684;29;20067;-68
2023/07/07 08:58:47;;;;;;;8.90;3.40;;;;;;;28.40;42.06;97017.19;4945248;29;20051;-71
2023/07/07 09:01:31;;;;;;;5.65;3.28;;;;;;;29.05;41.34;97016.72;4940674;29;20082;-71
2023/07/07 09:04:15;;;;;;;8.35;3.80;;;;;;;28.79;40.35;97016.47;4944884;28;20477;-67
2023/07/07 09:06:46;;;;;;;6.63;3.58;;;;;;;28.39;42.27;97015.63;4951255;28;20220;-68
2023/07/07 09:09:26;;;;;;;8.93;3.50;;;;;;;27.85;43.56;97012.56;4947717;29;20047;-69
2023/07/07 09:12:07;;;;;;;6.78;3.63;;;;;;;28.21;43.30;96999.59;4945320;29;20172;-70
2023/07/07 09:14:34;;;;;;;8.07;3.83;;;;;;;28.18;43.89;96997.75;4944565;29;20073;-70
2023/07/07 09:17:06;;;;;;;7.97;3.90;;;;;;;28.14;42.20;97002.78;4945273;29;20039;-70
2023/07/07 09:19:36;;;;;;;12.10;5.68;;;;;;;28.14;42.82;97002.78;4944233;29;20039;-69
2023/07/07 09:22:14;;;;;;;11.48;4.15;;;;;;;28.46;41.19;97008.06;4944347;28;20058;-64
2023/07/07 09:24:49;;;;;;;9.05;3.95;;;;;;;28.35;41.27;97002.97;4944621;29;20047;-69
2023/07/07 09:27:23;;;;;;;7.90;4.10;;;;;;;28.50;41.82;96989.72;4940993;29;20054;-69
2023/07/07 09:29:55;;;;;;;6.03;3.20;;;;;;;28.59;40.50;96989.72;4944947;29;20044;-68
2023/07/07 09:32:22;;;;;;;7.25;3.30;;;;;;;28.90;40.21;96990.53;4950131;28;20039;-68
2023/07/07 09:34:48;;;;;;;9.40;4.15;;;;;;;29.32;38.53;96993.16;4964128;28;20047;-69
2023/07/07 09:37:26;;;;;;;9.35;4.30;;;;;;;29.46;38.39;96994.41;4960118;28;20038;-69
2023/07/07 09:40:14;;;;;;;6.63;3.58;;;;;;;29.11;40.60;96983.75;4964281;28;20045;-70
2023/07/07 09:43:10;;;;;;;8.70;3.53;;;;;;;29.19;40.83;96986.22;4964299;28;20046;-69
2023/07/07 09:45:53;;;;;;;5.90;3.28;;;;;;;29.23;39.49;96975.56;4959051;28;20377;-69
2023/07/07 09:48:29;;;;;;;6.90;3.42;;;;;;;29.60;38.65;96984.38;4959448;28;20050;-69
2023/07/07 09:51:13;;;;;;;8.18;3.38;;;;;;;29.10;39.39;96993.50;4963922;28;20439;-68
2023/07/07 09:53:40;;;;;;;6.85;3.53;;;;;;;29.05;40.86;96985.72;4961926;28;20043;-69
2023/07/07 09:56:11;;;;;;;8.38;3.58;;;;;;;28.96;39.84;96989.38;4958879;28;20480;-69
2023/07/07 09:58:40;;;;;;;8.15;3.45;;;;;;;30.02;37.11;96986.09;4964594;28;20101;-69
2023/07/07 10:01:05;;;;;;;11.53;4.13;;;;;;;29.85;38.38;96988.66;4959701;28;20422;-68
2023/07/07 10:03:45;;;;;;;10.10;4.15;;;;;;;28.62;37.52;96985.13;4963374;28;20038;-69
2023/07/07 10:06:34;;;;;;;8.70;3.80;;;;;;;29.28;39.70;96978.47;4958590;28;20097;-69
2023/07/07 10:09:00;;;;;;;8.80;3.47;;;;;;;29.17;39.40;96983.88;4963366;28;20096;-72
2023/07/07 10:11:32;;;;;;;7.95;3.55;;;;;;;29.45;38.53;96975.91;4958078;28;20047;-69
2023/07/07 10:13:59;;;;;;;9.48;3.30;;;;;;;29.77;36.46;96984.69;4962989;28;20102;-69
2023/07/07 10:16:30;;;;;;;10.27;4.03;;;;;;;29.79;37.42;96987.03;4958579;28;20125;-69
2023/07/07 10:19:08;;;;;;;10.27;3.47;;;;;;;30.09;36.97;96985.69;4963099;28;20043;-67
2023/07/07 10:21:34;;;;;;;7.45;3.50;;;;;;;29.79;37.94;96975.72;4962832;28;20046;-68
2023/07/07 10:23:59;;;;;;;9.80;3.42;;;;;;;29.53;39.13;96974.28;4962291;28;20045;-69
2023/07/07 10:26:25;;;;;;;8.88;4.53;;;;;;;29.27;40.06;96973.31;4958168;28;20134;-69
2023/07/07 10:28:54;;;;;;;7.70;3.90;;;;;;;29.53;38.90;96977.09;4962519;28;20047;-69
2023/07/07 10:31:19;;;;;;;6.85;3.40;;;;;;;29.36;38.78;96976.78;4957513;28;20112;-68
2023/07/07 10:33:49;;;;;;;10.52;3.78;;;;;;;29.28;39.13;96970.00;4963089;28;20047;-70
2023/07/07 10:36:23;;;;;;;7.43;3.80;;;;;;;29.26;39.23;96983.03;4957254;28;20049;-70
2023/07/07 10:38:48;;;;;;;12.18;3.72;;;;;;;29.27;39.68;96982.53;4963085;28;20062;-69
2023/07/07 10:41:13;;;;;;;12.23;3.80;;;;;;;29.19;38.16;96981.38;4957306;28;20101;-67
2023/07/07 10:43:39;;;;;;;10.52;3.72;;;;;;;28.92;39.14;96977.53;4961302;28;20062;-68
2023/07/07 10:46:11;;;;;;;7.60;3.83;;;;;;;28.62;39.40;96979.50;4958695;28;20050;-65
2023/07/07 10:48:39;;;;;;;6.55;2.90;;;;;;;28.96;39.07;96986.56;4962833;28;20053;-67
2023/07/07 10:51:05;;;;;;;8.80;3.38;;;;;;;29.29;37.41;96982.81;4957617;28;20416;-68
2023/07/07 10:53:36;;;;;;;10.20;3.07;;;;;;;29.35;37.61;96982.91;4962185;28;20039;-69
2023/07/07 10:56:26;;;;;;;7.90;3.95;;;;;;;29.23;38.41;96978.38;4962425;28;20294;-69
2023/07/07 10:59:07;;;;;;;9.25;3.78;;;;;;;29.28;38.30;96980.50;4962388;28;20035;-68
2023/07/07 11:01:47;;;;;;;10.73;4.28;;;;;;;29.81;37.96;96979.59;4961842;28;20137;-66
2023/07/07 11:04:21;;;;;;;9.68;4.35;;;;;;;29.32;37.42;96981.88;4958160;28;20046;-68
2023/07/07 11:07:08;;;;;;;7.72;3.42;;;;;;;28.93;37.55;96979.06;4962732;28;20043;-69
2023/07/07 11:10:02;;;;;;;9.88;4.10;;;;;;;29.19;36.80;96972.13;4962160;28;20043;-69
2023/07/07 11:12:47;;;;;;;10.15;4.10;;;;;;;29.40;36.76;96975.84;4958718;28;20050;-70
2023/07/07 11:15:33;;;;;;;10.27;3.83;;;;;;;29.44;38.10;96967.94;4957155;28;20038;-67
2023/07/07 11:18:01;;;;;;;14.55;4.05;;;;;;;29.63;36.22;96965.69;4962706;28;20535;-69
2023/07/07 11:20:51;;;;;;;8.57;4.00;;;;;;;29.30;36.49;96970.28;4941086;28;20043;-70
2023/07/07 11:23:48;;;;;;;7.65;4.10;;;;;;;29.45;36.30;96964.63;4957505;28;20042;-70
2023/07/07 11:26:36;;;;;;;7.25;3.40;;;;;;;29.95;34.65;96965.97;4957972;28;20349;-70
2023/07/07 11:29:26;;;;;;;9.32;3.95;;;;;;;29.85;34.96;96960.41;4962312;28;20043;-65
2023/07/07 11:32:15;;;;;;;11.43;4.38;;;;;;;30.03;34.64;96962.22;4963407;28;20038;-69
2023/07/07 11:34:54;;;;;;;11.43;6.15;;;;;;;30.38;32.65;96963.47;4962091;28;20051;-69
2023/07/07 11:37:47;;;;;;;9.80;3.85;;;;;;;29.50;31.06;96961.13;4961949;28;20554;-69
2023/07/07 11:40:28;;;;;;;8.85;3.65;;;;;;;29.97;30.72;96958.53;4958549;28;20061;-69